sensor_id;sensor_type;location;lat;lon;timestamp;P1;durP1;ratioP1;P2;durP2;ratioP2
1122;SDS011;548;48.778;9.252;2023-07-13T00:01:33;11.90;;;11.30;;
1122;SDS011;548;48.778;9.252;2023-07-13T00:03:59;11.83;;;10.67;;
1122;SDS011;548;48.778;9.252;2023-07-13T00:06:26;11.23;;;10.63;;
1122;SDS011;548;48.778;9.252;2023-07-13T00:08:55;10.90;;;10.50;;
1122;SDS011;548;48.778;9.252;2023-07-13T00:11:22;11.77;;;11.37;;
1122;SDS011;548;48.778;9.252;2023-07-13T00:13:48;12.20;;;11.80;;
1122;SDS011;548;48.778;9.252;2023-07-13T00:16:15;11.30;;;10.80;;
1122;SDS011;548;48.778;9.252;2023-07-13T00:18:45;11.23;;;10.73;;
1122;SDS011;548;48.778;9.252;2023-07-13T00:21:12;12.53;;;11.93;;
1122;SDS011;548;48.778;9.252;2023-07-13T00:23:40;11.40;;;11.00;;
1122;SDS011;548;48.778;9.252;2023-07-13T00:26:08;11.40;;;10.97;;
1122;SDS011;548;48.778;9.252;2023-07-13T00:28:37;11.50;;;11.00;;
1122;SDS011;548;48.778;9.252;2023-07-13T00:31:04;11.30;;;10.70;;
1122;SDS011;548;48.778;9.252;2023-07-13T00:33:31;10.87;;;10.37;;
1122;SDS011;548;48.778;9.252;2023-07-13T00:35:59;10.77;;;10.37;;
1122;SDS011;548;48.778;9.252;2023-07-13T00:38:26;11.40;;;10.50;;
1122;SDS011;548;48.778;9.252;2023-07-13T00:40:53;11.63;;;11.13;;
1122;SDS011;548;48.778;9.252;2023-07-13T00:43:20;12.00;;;11.60;;
1122;SDS011;548;48.778;9.252;2023-07-13T00:46:11;12.53;;;11.83;;
1122;SDS011;548;48.778;9.252;2023-07-13T00:48:47;12.43;;;11.93;;
1122;SDS011;548;48.778;9.252;2023-07-13T00:51:17;12.97;;;12.10;;
1122;SDS011;548;48.778;9.252;2023-07-13T00:53:47;12.13;;;11.50;;
1122;SDS011;548;48.778;9.252;2023-07-13T00:56:15;11.83;;;11.30;;
1122;SDS011;548;48.778;9.252;2023-07-13T00:58:42;11.93;;;11.47;;
1122;SDS011;548;48.778;9.252;2023-07-13T01:01:09;12.27;;;11.33;;
1122;SDS011;548;48.778;9.252;2023-07-13T01:03:38;11.77;;;11.17;;
1122;SDS011;548;48.778;9.252;2023-07-13T01:06:05;12.10;;;11.60;;
1122;SDS011;548;48.778;9.252;2023-07-13T01:08:33;12.23;;;11.73;;
1122;SDS011;548;48.778;9.252;2023-07-13T01:11:00;11.50;;;11.03;;
1122;SDS011;548;48.778;9.252;2023-07-13T01:13:27;10.87;;;10.30;;
1122;SDS011;548;48.778;9.252;2023-07-13T01:15:55;11.40;;;10.90;;
1122;SDS011;548;48.778;9.252;2023-07-13T01:18:25;12.93;;;12.40;;
1122;SDS011;548;48.778;9.252;2023-07-13T01:20:55;12.20;;;11.60;;
1122;SDS011;548;48.778;9.252;2023-07-13T01:23:23;11.60;;;11.10;;
1122;SDS011;548;48.778;9.252;2023-07-13T01:25:51;11.30;;;10.90;;
1122;SDS011;548;48.778;9.252;2023-07-13T01:28:20;11.20;;;10.70;;
1122;SDS011;548;48.778;9.252;2023-07-13T01:30:47;12.60;;;12.10;;
1122;SDS011;548;48.778;9.252;2023-07-13T01:33:15;13.20;;;12.70;;
1122;SDS011;548;48.778;9.252;2023-07-13T01:35:44;11.60;;;11.10;;
1122;SDS011;548;48.778;9.252;2023-07-13T01:38:13;12.27;;;11.70;;
1122;SDS011;548;48.778;9.252;2023-07-13T01:40:42;12.77;;;12.17;;
1122;SDS011;548;48.778;9.252;2023-07-13T01:43:09;13.77;;;12.87;;
1122;SDS011;548;48.778;9.252;2023-07-13T01:45:36;12.20;;;11.60;;
1122;SDS011;548;48.778;9.252;2023-07-13T01:48:03;12.30;;;11.63;;
1122;SDS011;548;48.778;9.252;2023-07-13T01:50:31;11.63;;;11.13;;
1122;SDS011;548;48.778;9.252;2023-07-13T01:52:58;10.83;;;10.30;;
1122;SDS011;548;48.778;9.252;2023-07-13T01:55:27;11.23;;;10.73;;
1122;SDS011;548;48.778;9.252;2023-07-13T01:57:54;11.30;;;10.70;;
1122;SDS011;548;48.778;9.252;2023-07-13T02:00:21;11.70;;;11.10;;
1122;SDS011;548;48.778;9.252;2023-07-13T02:02:48;12.70;;;12.10;;
1122;SDS011;548;48.778;9.252;2023-07-13T02:05:15;12.70;;;11.97;;
1122;SDS011;548;48.778;9.252;2023-07-13T02:07:42;10.60;;;10.10;;
1122;SDS011;548;48.778;9.252;2023-07-13T02:10:09;11.00;;;10.60;;
1122;SDS011;548;48.778;9.252;2023-07-13T02:12:38;11.67;;;11.17;;
1122;SDS011;548;48.778;9.252;2023-07-13T02:15:05;12.10;;;11.60;;
1122;SDS011;548;48.778;9.252;2023-07-13T02:17:33;11.40;;;11.00;;
1122;SDS011;548;48.778;9.252;2023-07-13T02:20:00;11.67;;;11.27;;
1122;SDS011;548;48.778;9.252;2023-07-13T02:22:28;11.33;;;10.83;;
1122;SDS011;548;48.778;9.252;2023-07-13T02:24:55;12.00;;;11.30;;
1122;SDS011;548;48.778;9.252;2023-07-13T02:27:21;11.90;;;11.30;;
1122;SDS011;548;48.778;9.252;2023-07-13T02:29:49;12.13;;;11.63;;
1122;SDS011;548;48.778;9.252;2023-07-13T02:32:17;13.17;;;12.67;;
1122;SDS011;548;48.778;9.252;2023-07-13T02:34:43;13.40;;;12.70;;
1122;SDS011;548;48.778;9.252;2023-07-13T02:37:10;12.07;;;11.57;;
1122;SDS011;548;48.778;9.252;2023-07-13T02:39:37;12.10;;;11.53;;
1122;SDS011;548;48.778;9.252;2023-07-13T02:42:04;12.40;;;11.90;;
1122;SDS011;548;48.778;9.252;2023-07-13T02:44:31;12.00;;;11.40;;
1122;SDS011;548;48.778;9.252;2023-07-13T02:46:59;13.50;;;12.20;;
1122;SDS011;548;48.778;9.252;2023-07-13T02:49:26;13.23;;;12.53;;
1122;SDS011;548;48.778;9.252;2023-07-13T02:51:53;13.13;;;12.50;;
1122;SDS011;548;48.778;9.252;2023-07-13T02:54:19;11.80;;;11.10;;
1122;SDS011;548;48.778;9.252;2023-07-13T02:56:46;12.27;;;11.67;;
1122;SDS011;548;48.778;9.252;2023-07-13T02:59:13;13.30;;;12.50;;
1122;SDS011;548;48.778;9.252;2023-07-13T03:01:39;13.00;;;11.97;;
1122;SDS011;548;48.778;9.252;2023-07-13T03:04:07;14.07;;;13.40;;
1122;SDS011;548;48.778;9.252;2023-07-13T03:06:34;13.80;;;13.20;;
1122;SDS011;548;48.778;9.252;2023-07-13T03:09:01;16.33;;;14.90;;
1122;SDS011;548;48.778;9.252;2023-07-13T03:11:29;13.67;;;12.77;;
1122;SDS011;548;48.778;9.252;2023-07-13T03:13:56;13.60;;;13.00;;
1122;SDS011;548;48.778;9.252;2023-07-13T03:16:23;14.10;;;13.40;;
1122;SDS011;548;48.778;9.252;2023-07-13T03:18:50;14.23;;;13.50;;
1122;SDS011;548;48.778;9.252;2023-07-13T03:21:18;13.90;;;12.90;;
1122;SDS011;548;48.778;9.252;2023-07-13T03:23:45;13.90;;;12.93;;
1122;SDS011;548;48.778;9.252;2023-07-13T03:26:14;14.20;;;13.30;;
1122;SDS011;548;48.778;9.252;2023-07-13T03:28:43;13.77;;;13.27;;
1122;SDS011;548;48.778;9.252;2023-07-13T03:31:12;14.70;;;13.70;;
1122;SDS011;548;48.778;9.252;2023-07-13T03:33:40;13.73;;;13.03;;
1122;SDS011;548;48.778;9.252;2023-07-13T03:36:09;14.03;;;13.30;;
1122;SDS011;548;48.778;9.252;2023-07-13T03:38:40;14.33;;;13.67;;
1122;SDS011;548;48.778;9.252;2023-07-13T03:41:06;14.10;;;13.30;;
1122;SDS011;548;48.778;9.252;2023-07-13T03:43:33;16.23;;;15.23;;
1122;SDS011;548;48.778;9.252;2023-07-13T03:46:00;13.90;;;13.10;;
1122;SDS011;548;48.778;9.252;2023-07-13T03:48:26;14.40;;;13.50;;
1122;SDS011;548;48.778;9.252;2023-07-13T03:50:53;13.57;;;12.87;;
1122;SDS011;548;48.778;9.252;2023-07-13T03:53:20;14.00;;;13.20;;
1122;SDS011;548;48.778;9.252;2023-07-13T03:55:48;13.50;;;12.90;;
1122;SDS011;548;48.778;9.252;2023-07-13T03:58:24;13.13;;;12.43;;
1122;SDS011;548;48.778;9.252;2023-07-13T04:00:57;12.87;;;11.97;;
1122;SDS011;548;48.778;9.252;2023-07-13T04:03:24;15.13;;;14.43;;
1122;SDS011;548;48.778;9.252;2023-07-13T04:05:52;13.07;;;12.47;;
1122;SDS011;548;48.778;9.252;2023-07-13T04:08:19;13.60;;;12.90;;
1122;SDS011;548;48.778;9.252;2023-07-13T04:10:47;14.60;;;13.57;;
1122;SDS011;548;48.778;9.252;2023-07-13T04:13:14;13.60;;;13.00;;
1122;SDS011;548;48.778;9.252;2023-07-13T04:15:42;13.90;;;13.20;;
1122;SDS011;548;48.778;9.252;2023-07-13T04:18:09;13.43;;;12.67;;
1122;SDS011;548;48.778;9.252;2023-07-13T04:20:36;14.33;;;13.37;;
1122;SDS011;548;48.778;9.252;2023-07-13T04:23:02;14.17;;;13.40;;
1122;SDS011;548;48.778;9.252;2023-07-13T04:25:29;13.80;;;13.10;;
1122;SDS011;548;48.778;9.252;2023-07-13T04:27:57;14.20;;;13.23;;
1122;SDS011;548;48.778;9.252;2023-07-13T04:30:24;13.23;;;12.63;;
1122;SDS011;548;48.778;9.252;2023-07-13T04:32:51;14.57;;;13.50;;
1122;SDS011;548;48.778;9.252;2023-07-13T04:35:19;14.87;;;13.97;;
1122;SDS011;548;48.778;9.252;2023-07-13T04:37:47;14.73;;;13.80;;
1122;SDS011;548;48.778;9.252;2023-07-13T04:40:15;13.97;;;13.40;;
1122;SDS011;548;48.778;9.252;2023-07-13T04:42:42;14.70;;;14.03;;
1122;SDS011;548;48.778;9.252;2023-07-13T04:45:11;16.93;;;15.67;;
1122;SDS011;548;48.778;9.252;2023-07-13T04:47:38;14.63;;;13.60;;
1122;SDS011;548;48.778;9.252;2023-07-13T04:50:05;13.80;;;13.20;;
1122;SDS011;548;48.778;9.252;2023-07-13T04:52:32;15.73;;;14.53;;
1122;SDS011;548;48.778;9.252;2023-07-13T04:54:59;14.00;;;13.20;;
1122;SDS011;548;48.778;9.252;2023-07-13T04:57:26;13.30;;;12.57;;
1122;SDS011;548;48.778;9.252;2023-07-13T04:59:53;14.97;;;13.97;;
1122;SDS011;548;48.778;9.252;2023-07-13T05:02:21;14.20;;;13.50;;
1122;SDS011;548;48.778;9.252;2023-07-13T05:04:48;14.53;;;13.73;;
1122;SDS011;548;48.778;9.252;2023-07-13T05:07:15;14.50;;;13.67;;
1122;SDS011;548;48.778;9.252;2023-07-13T05:09:42;15.60;;;14.80;;
1122;SDS011;548;48.778;9.252;2023-07-13T05:12:08;16.03;;;14.73;;
1122;SDS011;548;48.778;9.252;2023-07-13T05:14:36;14.00;;;13.20;;
1122;SDS011;548;48.778;9.252;2023-07-13T05:17:03;14.50;;;13.60;;
1122;SDS011;548;48.778;9.252;2023-07-13T05:19:31;13.43;;;12.57;;
1122;SDS011;548;48.778;9.252;2023-07-13T05:21:58;14.00;;;13.10;;
1122;SDS011;548;48.778;9.252;2023-07-13T05:24:25;13.10;;;12.60;;
1122;SDS011;548;48.778;9.252;2023-07-13T05:26:52;14.00;;;13.30;;
1122;SDS011;548;48.778;9.252;2023-07-13T05:29:19;14.77;;;13.63;;
1122;SDS011;548;48.778;9.252;2023-07-13T05:31:46;13.80;;;13.20;;
1122;SDS011;548;48.778;9.252;2023-07-13T05:34:13;13.90;;;13.20;;
1122;SDS011;548;48.778;9.252;2023-07-13T05:36:41;14.50;;;13.40;;
1122;SDS011;548;48.778;9.252;2023-07-13T05:39:08;13.50;;;12.80;;
1122;SDS011;548;48.778;9.252;2023-07-13T05:41:35;14.23;;;13.53;;
1122;SDS011;548;48.778;9.252;2023-07-13T05:44:02;13.77;;;12.60;;
1122;SDS011;548;48.778;9.252;2023-07-13T05:46:28;12.93;;;12.30;;
1122;SDS011;548;48.778;9.252;2023-07-13T05:48:55;13.70;;;13.10;;
1122;SDS011;548;48.778;9.252;2023-07-13T05:51:22;14.20;;;13.40;;
1122;SDS011;548;48.778;9.252;2023-07-13T05:53:50;12.57;;;12.00;;
1122;SDS011;548;48.778;9.252;2023-07-13T05:56:17;13.63;;;13.03;;
1122;SDS011;548;48.778;9.252;2023-07-13T05:58:44;12.83;;;12.20;;
1122;SDS011;548;48.778;9.252;2023-07-13T06:01:11;14.00;;;13.43;;
1122;SDS011;548;48.778;9.252;2023-07-13T06:03:40;12.80;;;12.30;;
1122;SDS011;548;48.778;9.252;2023-07-13T06:06:07;15.07;;;14.40;;
1122;SDS011;548;48.778;9.252;2023-07-13T06:08:35;13.67;;;12.97;;
1122;SDS011;548;48.778;9.252;2023-07-13T06:11:05;13.17;;;12.47;;
1122;SDS011;548;48.778;9.252;2023-07-13T06:13:32;14.40;;;13.70;;
1122;SDS011;548;48.778;9.252;2023-07-13T06:15:59;15.70;;;14.80;;
1122;SDS011;548;48.778;9.252;2023-07-13T06:18:29;13.03;;;12.27;;
1122;SDS011;548;48.778;9.252;2023-07-13T06:20:56;13.93;;;13.03;;
1122;SDS011;548;48.778;9.252;2023-07-13T06:23:22;14.97;;;14.30;;
1122;SDS011;548;48.778;9.252;2023-07-13T06:25:49;14.50;;;13.90;;
1122;SDS011;548;48.778;9.252;2023-07-13T06:28:18;14.33;;;13.63;;
1122;SDS011;548;48.778;9.252;2023-07-13T06:30:45;15.10;;;14.10;;
1122;SDS011;548;48.778;9.252;2023-07-13T06:33:12;13.93;;;13.10;;
1122;SDS011;548;48.778;9.252;2023-07-13T06:35:38;14.07;;;13.10;;
1122;SDS011;548;48.778;9.252;2023-07-13T06:38:05;14.90;;;14.10;;
1122;SDS011;548;48.778;9.252;2023-07-13T06:40:32;13.50;;;12.80;;
1122;SDS011;548;48.778;9.252;2023-07-13T06:42:58;13.80;;;13.20;;
1122;SDS011;548;48.778;9.252;2023-07-13T06:45:26;15.37;;;14.67;;
1122;SDS011;548;48.778;9.252;2023-07-13T06:47:53;15.10;;;14.40;;
1122;SDS011;548;48.778;9.252;2023-07-13T06:50:20;13.50;;;13.00;;
1122;SDS011;548;48.778;9.252;2023-07-13T06:52:46;13.83;;;13.20;;
1122;SDS011;548;48.778;9.252;2023-07-13T06:55:13;14.13;;;13.27;;
1122;SDS011;548;48.778;9.252;2023-07-13T06:57:40;14.83;;;13.97;;
1122;SDS011;548;48.778;9.252;2023-07-13T07:00:07;14.30;;;13.70;;
1122;SDS011;548;48.778;9.252;2023-07-13T07:02:36;13.90;;;13.40;;
1122;SDS011;548;48.778;9.252;2023-07-13T07:05:03;12.40;;;11.90;;
1122;SDS011;548;48.778;9.252;2023-07-13T07:07:30;13.50;;;13.00;;
1122;SDS011;548;48.778;9.252;2023-07-13T07:09:57;13.97;;;13.37;;
1122;SDS011;548;48.778;9.252;2023-07-13T07:12:23;12.63;;;12.10;;
1122;SDS011;548;48.778;9.252;2023-07-13T07:14:50;14.53;;;13.93;;
1122;SDS011;548;48.778;9.252;2023-07-13T07:17:17;14.00;;;13.50;;
1122;SDS011;548;48.778;9.252;2023-07-13T07:19:45;14.47;;;13.77;;
1122;SDS011;548;48.778;9.252;2023-07-13T07:22:11;12.87;;;12.47;;
1122;SDS011;548;48.778;9.252;2023-07-13T07:24:38;13.17;;;12.57;;
1122;SDS011;548;48.778;9.252;2023-07-13T07:27:05;13.07;;;12.37;;
1122;SDS011;548;48.778;9.252;2023-07-13T07:29:32;13.90;;;13.30;;
1122;SDS011;548;48.778;9.252;2023-07-13T07:31:59;13.10;;;12.60;;
1122;SDS011;548;48.778;9.252;2023-07-13T07:34:26;12.90;;;12.30;;
1122;SDS011;548;48.778;9.252;2023-07-13T07:36:54;13.43;;;12.60;;
1122;SDS011;548;48.778;9.252;2023-07-13T07:39:23;14.50;;;13.60;;
1122;SDS011;548;48.778;9.252;2023-07-13T07:41:49;13.53;;;12.93;;
1122;SDS011;548;48.778;9.252;2023-07-13T07:44:16;13.37;;;12.80;;
1122;SDS011;548;48.778;9.252;2023-07-13T07:46:43;14.50;;;13.57;;
1122;SDS011;548;48.778;9.252;2023-07-13T07:49:10;13.43;;;12.90;;
1122;SDS011;548;48.778;9.252;2023-07-13T07:51:36;13.10;;;12.40;;
1122;SDS011;548;48.778;9.252;2023-07-13T07:54:05;13.67;;;13.00;;
1122;SDS011;548;48.778;9.252;2023-07-13T07:56:31;13.90;;;13.27;;
1122;SDS011;548;48.778;9.252;2023-07-13T07:58:58;13.63;;;13.03;;
1122;SDS011;548;48.778;9.252;2023-07-13T08:01:25;12.90;;;12.30;;
1122;SDS011;548;48.778;9.252;2023-07-13T08:03:52;13.47;;;12.83;;
1122;SDS011;548;48.778;9.252;2023-07-13T08:06:19;14.10;;;13.50;;
1122;SDS011;548;48.778;9.252;2023-07-13T08:08:47;13.00;;;12.40;;
1122;SDS011;548;48.778;9.252;2023-07-13T08:11:15;14.00;;;13.33;;
1122;SDS011;548;48.778;9.252;2023-07-13T08:13:43;14.03;;;13.53;;
1122;SDS011;548;48.778;9.252;2023-07-13T08:16:10;13.13;;;12.57;;
1122;SDS011;548;48.778;9.252;2023-07-13T08:18:36;12.90;;;12.30;;
1122;SDS011;548;48.778;9.252;2023-07-13T08:21:04;14.40;;;13.80;;
1122;SDS011;548;48.778;9.252;2023-07-13T08:23:31;13.63;;;13.07;;
1122;SDS011;548;48.778;9.252;2023-07-13T08:25:58;12.80;;;12.30;;
1122;SDS011;548;48.778;9.252;2023-07-13T08:28:27;12.60;;;12.00;;
1122;SDS011;548;48.778;9.252;2023-07-13T08:30:54;12.83;;;12.13;;
1122;SDS011;548;48.778;9.252;2023-07-13T08:33:26;13.60;;;13.00;;
1122;SDS011;548;48.778;9.252;2023-07-13T08:35:52;12.80;;;12.30;;
1122;SDS011;548;48.778;9.252;2023-07-13T08:38:19;15.63;;;15.03;;
1122;SDS011;548;48.778;9.252;2023-07-13T08:40:48;12.30;;;11.70;;
1122;SDS011;548;48.778;9.252;2023-07-13T08:43:18;13.70;;;13.00;;
1122;SDS011;548;48.778;9.252;2023-07-13T08:45:50;13.90;;;13.30;;
1122;SDS011;548;48.778;9.252;2023-07-13T08:48:24;13.13;;;12.73;;
1122;SDS011;548;48.778;9.252;2023-07-13T08:50:54;14.80;;;14.10;;
1122;SDS011;548;48.778;9.252;2023-07-13T08:53:24;12.97;;;12.20;;
1122;SDS011;548;48.778;9.252;2023-07-13T08:55:57;12.73;;;12.20;;
1122;SDS011;548;48.778;9.252;2023-07-13T08:58:25;13.13;;;12.53;;
1122;SDS011;548;48.778;9.252;2023-07-13T09:00:58;12.70;;;12.20;;
1122;SDS011;548;48.778;9.252;2023-07-13T09:03:34;12.87;;;12.20;;
1122;SDS011;548;48.778;9.252;2023-07-13T09:06:06;13.67;;;13.00;;
1122;SDS011;548;48.778;9.252;2023-07-13T09:08:44;14.20;;;13.23;;
1122;SDS011;548;48.778;9.252;2023-07-13T09:11:23;15.13;;;14.53;;
1122;SDS011;548;48.778;9.252;2023-07-13T09:14:03;30.03;;;14.47;;
1122;SDS011;548;48.778;9.252;2023-07-13T09:16:40;14.00;;;13.33;;
1122;SDS011;548;48.778;9.252;2023-07-13T09:19:09;13.37;;;12.80;;
1122;SDS011;548;48.778;9.252;2023-07-13T09:21:42;14.33;;;13.83;;
1122;SDS011;548;48.778;9.252;2023-07-13T09:24:22;13.00;;;12.30;;
1122;SDS011;548;48.778;9.252;2023-07-13T09:26:55;13.70;;;13.20;;
1122;SDS011;548;48.778;9.252;2023-07-13T09:29:26;13.00;;;12.30;;
1122;SDS011;548;48.778;9.252;2023-07-13T09:31:57;13.33;;;12.73;;
1122;SDS011;548;48.778;9.252;2023-07-13T09:34:30;13.10;;;12.50;;
1122;SDS011;548;48.778;9.252;2023-07-13T09:36:59;12.40;;;12.00;;
1122;SDS011;548;48.778;9.252;2023-07-13T09:39:26;14.80;;;14.07;;
1122;SDS011;548;48.778;9.252;2023-07-13T09:41:57;13.50;;;12.93;;
1122;SDS011;548;48.778;9.252;2023-07-13T09:44:34;13.47;;;12.70;;
1122;SDS011;548;48.778;9.252;2023-07-13T09:47:03;13.90;;;13.40;;
1122;SDS011;548;48.778;9.252;2023-07-13T09:49:42;16.07;;;15.10;;
1122;SDS011;548;48.778;9.252;2023-07-13T09:52:11;14.27;;;13.60;;
1122;SDS011;548;48.778;9.252;2023-07-13T09:54:44;14.83;;;14.23;;
1122;SDS011;548;48.778;9.252;2023-07-13T09:57:14;14.67;;;13.97;;
1122;SDS011;548;48.778;9.252;2023-07-13T09:59:43;15.77;;;15.10;;
1122;SDS011;548;48.778;9.252;2023-07-13T10:02:26;15.90;;;15.10;;
1122;SDS011;548;48.778;9.252;2023-07-13T10:04:58;14.97;;;14.27;;
1122;SDS011;548;48.778;9.252;2023-07-13T10:07:26;14.77;;;14.03;;
1122;SDS011;548;48.778;9.252;2023-07-13T10:09:54;14.10;;;13.60;;
1122;SDS011;548;48.778;9.252;2023-07-13T10:12:21;14.03;;;13.43;;
1122;SDS011;548;48.778;9.252;2023-07-13T10:14:50;14.30;;;13.67;;
1122;SDS011;548;48.778;9.252;2023-07-13T10:17:24;14.17;;;13.50;;
1122;SDS011;548;48.778;9.252;2023-07-13T10:19:57;14.40;;;13.80;;
1122;SDS011;548;48.778;9.252;2023-07-13T10:22:29;15.43;;;14.50;;
1122;SDS011;548;48.778;9.252;2023-07-13T10:25:04;14.57;;;13.63;;
1122;SDS011;548;48.778;9.252;2023-07-13T10:27:43;14.50;;;13.90;;
1122;SDS011;548;48.778;9.252;2023-07-13T10:30:12;13.60;;;13.00;;
1122;SDS011;548;48.778;9.252;2023-07-13T10:32:43;13.13;;;12.53;;
1122;SDS011;548;48.778;9.252;2023-07-13T10:35:10;13.27;;;12.87;;
1122;SDS011;548;48.778;9.252;2023-07-13T10:37:43;15.20;;;13.63;;
1122;SDS011;548;48.778;9.252;2023-07-13T10:40:16;13.93;;;13.40;;
1122;SDS011;548;48.778;9.252;2023-07-13T10:42:48;15.07;;;14.37;;
1122;SDS011;548;48.778;9.252;2023-07-13T10:45:19;15.87;;;15.17;;
1122;SDS011;548;48.778;9.252;2023-07-13T10:47:49;14.50;;;14.00;;
1122;SDS011;548;48.778;9.252;2023-07-13T10:50:19;14.77;;;13.90;;
1122;SDS011;548;48.778;9.252;2023-07-13T10:52:48;14.20;;;13.70;;
1122;SDS011;548;48.778;9.252;2023-07-13T10:55:30;14.70;;;13.93;;
1122;SDS011;548;48.778;9.252;2023-07-13T10:58:02;15.30;;;14.40;;
1122;SDS011;548;48.778;9.252;2023-07-13T11:00:42;12.93;;;12.53;;
1122;SDS011;548;48.778;9.252;2023-07-13T11:03:16;14.40;;;13.60;;
1122;SDS011;548;48.778;9.252;2023-07-13T11:05:48;13.93;;;13.00;;
1122;SDS011;548;48.778;9.252;2023-07-13T11:08:18;13.80;;;13.30;;
1122;SDS011;548;48.778;9.252;2023-07-13T11:10:51;14.27;;;13.67;;
1122;SDS011;548;48.778;9.252;2023-07-13T11:13:36;14.43;;;13.80;;
1122;SDS011;548;48.778;9.252;2023-07-13T11:19:26;13.73;;;13.03;;
1122;SDS011;548;48.778;9.252;2023-07-13T11:22:09;14.27;;;13.77;;
1122;SDS011;548;48.778;9.252;2023-07-13T11:24:48;14.37;;;13.87;;
1122;SDS011;548;48.778;9.252;2023-07-13T11:27:36;14.80;;;14.00;;
1122;SDS011;548;48.778;9.252;2023-07-13T11:33:04;14.50;;;14.00;;
1122;SDS011;548;48.778;9.252;2023-07-13T11:35:40;15.40;;;14.73;;
1122;SDS011;548;48.778;9.252;2023-07-13T11:38:12;14.37;;;13.77;;
1122;SDS011;548;48.778;9.252;2023-07-13T11:40:42;13.03;;;12.53;;
1122;SDS011;548;48.778;9.252;2023-07-13T11:43:12;14.83;;;14.03;;
1122;SDS011;548;48.778;9.252;2023-07-13T11:45:41;13.53;;;13.03;;
1122;SDS011;548;48.778;9.252;2023-07-13T11:48:17;14.47;;;13.57;;
1122;SDS011;548;48.778;9.252;2023-07-13T11:50:50;14.07;;;13.47;;
1122;SDS011;548;48.778;9.252;2023-07-13T11:53:19;15.30;;;14.80;;
1122;SDS011;548;48.778;9.252;2023-07-13T11:55:46;15.50;;;14.90;;
1122;SDS011;548;48.778;9.252;2023-07-13T11:58:14;15.23;;;14.27;;
1122;SDS011;548;48.778;9.252;2023-07-13T12:00:47;14.80;;;14.30;;
1122;SDS011;548;48.778;9.252;2023-07-13T12:03:14;14.93;;;13.77;;
1122;SDS011;548;48.778;9.252;2023-07-13T12:06:00;14.27;;;13.57;;
1122;SDS011;548;48.778;9.252;2023-07-13T12:08:30;14.80;;;14.20;;
1122;SDS011;548;48.778;9.252;2023-07-13T12:11:04;14.53;;;13.67;;
1122;SDS011;548;48.778;9.252;2023-07-13T12:13:36;13.10;;;12.60;;
1122;SDS011;548;48.778;9.252;2023-07-13T12:16:10;14.33;;;13.53;;
1122;SDS011;548;48.778;9.252;2023-07-13T12:18:40;13.70;;;13.00;;
1122;SDS011;548;48.778;9.252;2023-07-13T12:21:13;14.27;;;13.57;;
1122;SDS011;548;48.778;9.252;2023-07-13T12:23:44;14.70;;;14.20;;
1122;SDS011;548;48.778;9.252;2023-07-13T12:26:14;15.03;;;14.27;;
1122;SDS011;548;48.778;9.252;2023-07-13T12:28:44;14.57;;;13.97;;
1122;SDS011;548;48.778;9.252;2023-07-13T12:34:00;15.10;;;14.30;;
1122;SDS011;548;48.778;9.252;2023-07-13T12:36:33;15.17;;;14.10;;
1122;SDS011;548;48.778;9.252;2023-07-13T12:39:11;14.13;;;13.63;;
1122;SDS011;548;48.778;9.252;2023-07-13T12:41:40;14.87;;;14.07;;
1122;SDS011;548;48.778;9.252;2023-07-13T12:44:10;14.60;;;14.10;;
1122;SDS011;548;48.778;9.252;2023-07-13T12:46:38;14.80;;;14.10;;
1122;SDS011;548;48.778;9.252;2023-07-13T12:49:05;13.13;;;12.60;;
1122;SDS011;548;48.778;9.252;2023-07-13T12:51:34;13.20;;;12.70;;
1122;SDS011;548;48.778;9.252;2023-07-13T12:54:11;13.27;;;12.30;;
1122;SDS011;548;48.778;9.252;2023-07-13T12:56:41;12.60;;;11.90;;
1122;SDS011;548;48.778;9.252;2023-07-13T12:59:11;13.00;;;12.40;;
1122;SDS011;548;48.778;9.252;2023-07-13T13:01:45;13.30;;;12.60;;
1122;SDS011;548;48.778;9.252;2023-07-13T13:04:14;14.40;;;13.63;;
1122;SDS011;548;48.778;9.252;2023-07-13T13:06:43;14.23;;;13.73;;
1122;SDS011;548;48.778;9.252;2023-07-13T13:09:12;14.80;;;14.10;;
1122;SDS011;548;48.778;9.252;2023-07-13T13:11:40;13.87;;;13.37;;
1122;SDS011;548;48.778;9.252;2023-07-13T13:14:07;14.97;;;14.17;;
1122;SDS011;548;48.778;9.252;2023-07-13T13:16:35;14.70;;;14.00;;
1122;SDS011;548;48.778;9.252;2023-07-13T13:19:12;13.67;;;13.17;;
1122;SDS011;548;48.778;9.252;2023-07-13T13:21:42;15.30;;;14.60;;
1122;SDS011;548;48.778;9.252;2023-07-13T13:24:11;14.50;;;13.80;;
1122;SDS011;548;48.778;9.252;2023-07-13T13:26:39;13.63;;;13.03;;
1122;SDS011;548;48.778;9.252;2023-07-13T13:29:09;13.37;;;12.77;;
1122;SDS011;548;48.778;9.252;2023-07-13T13:31:39;14.33;;;13.73;;
1122;SDS011;548;48.778;9.252;2023-07-13T13:34:07;15.47;;;14.87;;
1122;SDS011;548;48.778;9.252;2023-07-13T13:36:35;15.10;;;14.43;;
1122;SDS011;548;48.778;9.252;2023-07-13T13:39:05;13.90;;;13.33;;
1122;SDS011;548;48.778;9.252;2023-07-13T13:41:42;14.40;;;13.70;;
1122;SDS011;548;48.778;9.252;2023-07-13T13:44:09;14.00;;;13.47;;
1122;SDS011;548;48.778;9.252;2023-07-13T13:46:35;15.17;;;14.57;;
1122;SDS011;548;48.778;9.252;2023-07-13T13:49:02;15.23;;;14.57;;
1122;SDS011;548;48.778;9.252;2023-07-13T13:51:29;14.07;;;13.30;;
1122;SDS011;548;48.778;9.252;2023-07-13T13:53:56;14.97;;;14.47;;
1122;SDS011;548;48.778;9.252;2023-07-13T13:56:24;14.23;;;13.40;;
1122;SDS011;548;48.778;9.252;2023-07-13T13:58:52;13.57;;;12.83;;
1122;SDS011;548;48.778;9.252;2023-07-13T14:01:19;12.70;;;12.20;;
1122;SDS011;548;48.778;9.252;2023-07-13T14:03:47;15.40;;;14.50;;
1122;SDS011;548;48.778;9.252;2023-07-13T14:06:16;14.30;;;13.70;;
1122;SDS011;548;48.778;9.252;2023-07-13T14:08:43;14.00;;;13.40;;
1122;SDS011;548;48.778;9.252;2023-07-13T14:11:10;14.00;;;13.50;;
1122;SDS011;548;48.778;9.252;2023-07-13T14:13:40;13.23;;;12.63;;
1122;SDS011;548;48.778;9.252;2023-07-13T14:16:10;14.07;;;13.27;;
1122;SDS011;548;48.778;9.252;2023-07-13T14:18:38;14.30;;;13.57;;
1122;SDS011;548;48.778;9.252;2023-07-13T14:21:08;14.43;;;13.93;;
1122;SDS011;548;48.778;9.252;2023-07-13T14:23:37;13.23;;;12.47;;
1122;SDS011;548;48.778;9.252;2023-07-13T14:26:07;12.70;;;12.20;;
1122;SDS011;548;48.778;9.252;2023-07-13T14:28:36;13.53;;;12.93;;
1122;SDS011;548;48.778;9.252;2023-07-13T14:31:07;13.17;;;12.17;;
1122;SDS011;548;48.778;9.252;2023-07-13T14:33:34;13.30;;;12.80;;
1122;SDS011;548;48.778;9.252;2023-07-13T14:36:01;13.17;;;12.67;;
1122;SDS011;548;48.778;9.252;2023-07-13T14:38:28;12.97;;;12.47;;
1122;SDS011;548;48.778;9.252;2023-07-13T14:40:55;14.90;;;14.20;;
1122;SDS011;548;48.778;9.252;2023-07-13T14:43:22;13.10;;;12.40;;
1122;SDS011;548;48.778;9.252;2023-07-13T14:45:51;13.50;;;13.00;;
1122;SDS011;548;48.778;9.252;2023-07-13T14:48:21;13.90;;;13.30;;
1122;SDS011;548;48.778;9.252;2023-07-13T14:50:50;12.70;;;12.20;;
1122;SDS011;548;48.778;9.252;2023-07-13T14:53:20;13.60;;;13.00;;
1122;SDS011;548;48.778;9.252;2023-07-13T14:55:48;14.47;;;13.43;;
1122;SDS011;548;48.778;9.252;2023-07-13T14:58:14;13.83;;;13.13;;
1122;SDS011;548;48.778;9.252;2023-07-13T15:00:41;13.77;;;12.73;;
1122;SDS011;548;48.778;9.252;2023-07-13T15:03:12;15.10;;;14.20;;
1122;SDS011;548;48.778;9.252;2023-07-13T15:05:46;14.50;;;13.80;;
1122;SDS011;548;48.778;9.252;2023-07-13T15:08:13;16.10;;;15.30;;
1122;SDS011;548;48.778;9.252;2023-07-13T15:10:40;12.20;;;11.60;;
1122;SDS011;548;48.778;9.252;2023-07-13T15:13:14;13.10;;;12.40;;
1122;SDS011;548;48.778;9.252;2023-07-13T15:15:44;13.30;;;12.17;;
1122;SDS011;548;48.778;9.252;2023-07-13T15:18:14;13.03;;;12.27;;
1122;SDS011;548;48.778;9.252;2023-07-13T15:20:43;12.90;;;12.10;;